createdAt,value
2023-02-11T00:03:59.265Z,29.05
2023-02-11T00:09:01.697Z,28.63
2023-02-11T00:14:05.857Z,29.55
2023-02-11T00:19:07.522Z,29.70
2023-02-11T00:24:09.116Z,29.70
2023-02-11T00:29:10.722Z,28.30
2023-02-11T00:34:12.337Z,28.20
2023-02-11T00:39:13.928Z,29.60
2023-02-11T00:44:15.614Z,29.15
2023-02-11T00:49:17.472Z,28.95
2023-02-11T00:54:19.073Z,29.48
2023-02-11T00:59:20.655Z,28.45
2023-02-11T01:04:22.246Z,28.23
2023-02-11T01:09:23.849Z,28.35
2023-02-11T01:14:25.546Z,28.25
2023-02-11T01:19:27.142Z,29.15
2023-02-11T01:24:28.863Z,27.70
2023-02-11T01:29:30.648Z,28.25
2023-02-11T01:34:32.339Z,28.40
2023-02-11T01:39:34.629Z,29.10
2023-02-11T01:44:39.159Z,28.35
2023-02-11T01:49:46.582Z,28.85
2023-02-11T01:55:11.989Z,28.77
2023-02-11T02:00:31.535Z,28.52
2023-02-11T02:05:51.376Z,28.10
2023-02-11T02:10:56.578Z,28.45
2023-02-11T02:16:01.247Z,28.30
2023-02-11T02:21:21.434Z,28.45
2023-02-11T02:26:52.480Z,28.30
2023-02-11T02:32:31.271Z,29.33
2023-02-11T02:37:45.038Z,29.02
2023-02-11T02:42:48.055Z,29.25
2023-02-11T02:47:49.692Z,28.88
2023-02-11T02:53:00.035Z,28.13
2023-02-11T02:58:32.773Z,29.50
2023-02-11T03:03:49.551Z,29.08
2023-02-11T03:09:01.051Z,27.98
2023-02-11T03:14:04.633Z,28.33
2023-02-11T03:19:14.351Z,29.88
2023-02-11T03:24:30.985Z,29.45
2023-02-11T03:29:41.632Z,28.65
2023-02-11T03:35:10.778Z,28.75
2023-02-11T03:40:22.251Z,29.40
2023-02-11T03:45:25.689Z,29.23
2023-02-11T03:50:30.812Z,29.77
2023-02-11T03:55:39.266Z,30.38
2023-02-11T04:00:42.906Z,30.15
2023-02-11T04:05:44.647Z,29.25
2023-02-11T04:10:46.377Z,30.30
2023-02-11T04:15:49.131Z,30.77
2023-02-11T04:20:51.109Z,31.27
2023-02-11T04:25:52.921Z,31.70
2023-02-11T04:30:55.122Z,30.02
2023-02-11T04:35:59.585Z,29.38
2023-02-11T04:41:01.321Z,30.10
2023-02-11T04:46:02.963Z,29.90
2023-02-11T04:51:04.894Z,29.75
2023-02-11T04:56:07.057Z,30.67
2023-02-11T05:01:12.115Z,30.10
2023-02-11T05:06:13.875Z,29.45
2023-02-11T05:11:21.694Z,31.13
2023-02-11T05:16:23.593Z,30.27
2023-02-11T05:21:25.320Z,31.75
2023-02-11T05:26:27.011Z,31.48
2023-02-11T05:31:28.682Z,32.13
2023-02-11T05:36:33.344Z,32.10
2023-02-11T05:41:35.145Z,32.38
2023-02-11T05:46:36.779Z,32.88
2023-02-11T05:51:38.478Z,33.55
2023-02-11T05:56:40.055Z,33.40
2023-02-11T06:01:41.817Z,33.75
2023-02-11T06:06:43.479Z,33.80
2023-02-11T06:11:45.104Z,36.42
2023-02-11T06:16:46.730Z,34.22
2023-02-11T06:21:48.343Z,34.40
2023-02-11T06:26:49.948Z,34.83
2023-02-11T06:31:51.601Z,35.42
2023-02-11T06:36:53.246Z,35.80
2023-02-11T06:41:54.949Z,36.42
2023-02-11T06:46:56.618Z,37.13
2023-02-11T06:51:58.262Z,40.03
2023-02-11T06:56:59.887Z,39.05
2023-02-11T07:02:01.526Z,35.67
2023-02-11T07:07:03.211Z,36.33
2023-02-11T07:12:04.980Z,37.67
2023-02-11T07:17:06.609Z,35.03
2023-02-11T07:22:08.328Z,36.80
2023-02-11T07:27:09.939Z,34.90
2023-02-11T07:32:11.825Z,34.45
2023-02-11T07:37:13.454Z,36.05
2023-02-11T07:42:15.734Z,36.92
2023-02-11T07:47:17.358Z,37.38
2023-02-11T07:52:19.075Z,40.33
2023-02-11T07:57:20.678Z,33.25
2023-02-11T08:02:23.118Z,35.58
2023-02-11T08:07:24.825Z,32.63
2023-02-11T08:12:26.410Z,32.67
2023-02-11T08:17:28.148Z,32.53
2023-02-11T08:22:32.628Z,32.40
2023-02-11T08:27:34.545Z,32.15
2023-02-11T08:32:36.341Z,32.45
2023-02-11T08:37:38.413Z,31.67
2023-02-11T08:42:40.189Z,29.52
2023-02-11T08:47:41.853Z,29.55
2023-02-11T08:52:44.644Z,28.98
2023-02-11T08:57:46.311Z,29.30
2023-02-11T09:02:47.993Z,28.33
2023-02-11T09:07:49.651Z,28.92
2023-02-11T09:12:51.331Z,28.63
2023-02-11T09:17:53.152Z,30.30
2023-02-11T09:22:57.620Z,30.65
2023-02-11T09:27:59.223Z,31.55
2023-02-11T09:33:00.861Z,31.25
2023-02-11T09:38:02.474Z,29.65
2023-02-11T09:43:21.102Z,29.25
2023-02-11T09:48:23.564Z,29.67
2023-02-11T09:53:43.147Z,29.40
2023-02-11T09:58:45.669Z,31.40
2023-02-11T10:04:09.187Z,33.63
2023-02-11T10:09:17.167Z,36.92
2023-02-11T10:14:47.390Z,35.03
2023-02-11T10:20:01.084Z,35.80
2023-02-11T10:25:17.258Z,35.38
2023-02-11T10:30:32.512Z,33.20
2023-02-11T10:35:34.202Z,35.65
2023-02-11T10:40:35.852Z,35.63
2023-02-11T10:45:43.423Z,36.10
2023-02-11T10:50:45.060Z,35.97
2023-02-11T10:55:57.514Z,35.53
2023-02-11T11:01:00.476Z,29.05
2023-02-11T11:06:05.568Z,27.75
2023-02-11T11:11:13.115Z,26.85
2023-02-11T11:16:14.923Z,26.50
2023-02-11T11:21:22.675Z,25.35
2023-02-11T11:26:27.694Z,29.80
2023-02-11T11:31:37.048Z,27.95
2023-02-11T11:36:39.971Z,26.90
2023-02-11T11:41:51.622Z,27.00
2023-02-11T11:47:11.265Z,27.10
2023-02-11T11:52:37.786Z,24.88
2023-02-11T11:57:39.739Z,24.50
2023-02-11T12:02:50.923Z,23.27
2023-02-11T12:08:14.412Z,23.63
2023-02-11T12:13:42.399Z,23.17
2023-02-11T12:18:56.084Z,22.77
2023-02-11T12:24:40.565Z,22.25
2023-02-11T12:30:03.996Z,22.92
2023-02-11T12:35:40.108Z,21.27
2023-02-11T12:41:39.685Z,21.67
2023-02-11T12:46:52.211Z,21.20
2023-02-11T12:52:44.292Z,21.02
2023-02-11T12:57:48.893Z,20.70
2023-02-11T13:03:01.512Z,20.65
2023-02-11T13:08:11.099Z,19.17
2023-02-11T13:13:33.160Z,19.38
2023-02-11T13:18:40.607Z,19.00
2023-02-11T13:23:45.160Z,19.23
2023-02-11T13:29:09.961Z,18.27
2023-02-11T13:34:41.000Z,18.90
2023-02-11T13:39:42.710Z,18.93
2023-02-11T13:44:44.504Z,19.02
2023-02-11T13:49:53.454Z,24.88
2023-02-11T13:54:59.453Z,18.08
2023-02-11T14:00:26.050Z,18.13
2023-02-11T14:05:50.752Z,17.63
2023-02-11T14:10:54.141Z,18.33
2023-02-11T14:16:11.153Z,18.05
2023-02-11T14:21:28.924Z,17.17
2023-02-11T14:26:47.320Z,17.25
2023-02-11T14:32:13.113Z,18.60
2023-02-11T14:37:19.464Z,21.98
2023-02-11T14:42:26.888Z,20.77
2023-02-11T14:47:41.944Z,22.02
2023-02-11T14:52:44.567Z,30.42
2023-02-11T14:57:49.662Z,19.85
2023-02-11T15:02:51.796Z,18.85
2023-02-11T15:08:00.788Z,19.42
2023-02-11T15:13:05.906Z,19.85
2023-02-11T15:18:09.672Z,18.77
2023-02-11T15:23:21.749Z,18.60
2023-02-11T15:28:26.806Z,18.70
2023-02-11T15:33:30.700Z,18.85
2023-02-11T15:38:32.613Z,18.45
2023-02-11T15:43:46.352Z,18.30
2023-02-11T15:48:51.390Z,18.92
2023-02-11T15:53:57.099Z,18.02
2023-02-11T15:59:09.276Z,18.70
2023-02-11T16:04:27.231Z,18.25
2023-02-11T16:09:35.303Z,18.23
2023-02-11T16:14:39.686Z,19.58
2023-02-11T16:19:47.407Z,18.42
2023-02-11T16:24:51.232Z,19.27
2023-02-11T16:29:53.207Z,18.30
2023-02-11T16:34:57.986Z,19.30
2023-02-11T16:39:59.668Z,19.40
2023-02-11T16:45:01.348Z,19.23
2023-02-11T16:50:04.488Z,19.58
2023-02-11T16:55:06.721Z,19.92
2023-02-11T17:00:08.988Z,20.63
2023-02-11T17:05:26.062Z,20.73
2023-02-11T17:10:27.739Z,20.75
2023-02-11T17:15:29.401Z,26.98
2023-02-11T17:20:31.079Z,21.90
2023-02-11T17:25:32.799Z,21.13
2023-02-11T17:30:34.598Z,21.85
2023-02-11T17:35:39.397Z,22.38
2023-02-11T17:40:41.015Z,24.13
2023-02-11T17:45:42.820Z,22.73
2023-02-11T17:50:44.606Z,24.15
2023-02-11T17:55:46.190Z,22.33
2023-02-11T18:00:47.980Z,25.08
2023-02-11T18:05:50.166Z,25.20
2023-02-11T18:10:52.007Z,24.77
2023-02-11T18:15:53.855Z,26.27
2023-02-11T18:20:57.318Z,28.42
2023-02-11T18:25:58.953Z,27.10
2023-02-11T18:31:01.804Z,28.88
2023-02-11T18:36:12.513Z,27.15
2023-02-11T18:41:14.627Z,28.35
2023-02-11T18:46:16.781Z,28.38
2023-02-11T18:51:18.801Z,30.02
2023-02-11T18:56:23.469Z,30.48
2023-02-11T19:01:27.630Z,27.27
2023-02-11T19:06:32.482Z,26.60
2023-02-11T19:11:54.789Z,24.95
2023-02-11T19:16:58.573Z,24.85
2023-02-11T19:22:03.227Z,26.25
2023-02-11T19:27:05.303Z,25.83
2023-02-11T19:32:07.424Z,25.90
2023-02-11T19:37:12.711Z,26.48
2023-02-11T19:42:15.237Z,26.25
2023-02-11T19:47:16.953Z,30.65
2023-02-11T19:52:18.600Z,43.10
2023-02-11T19:57:20.217Z,32.60
2023-02-11T20:02:22.000Z,38.03
2023-02-11T20:07:23.742Z,28.27
2023-02-11T20:12:25.472Z,28.20
2023-02-11T20:17:27.238Z,26.17
2023-02-11T20:22:28.921Z,25.25
2023-02-11T20:27:32.338Z,25.65
2023-02-11T20:32:38.142Z,27.52
2023-02-11T20:37:42.231Z,28.00
2023-02-11T20:42:45.433Z,26.50
2023-02-11T20:47:47.493Z,27.50
2023-02-11T20:52:49.142Z,27.50
2023-02-11T20:57:50.964Z,31.00
2023-02-11T21:02:53.482Z,30.25
2023-02-11T21:07:55.193Z,28.42
2023-02-11T21:12:57.125Z,27.65
2023-02-11T21:17:58.966Z,26.30
2023-02-11T21:23:00.562Z,27.45
2023-02-11T21:28:02.184Z,26.60
2023-02-11T21:33:03.980Z,28.55
2023-02-11T21:38:05.699Z,27.90
2023-02-11T21:43:07.505Z,28.55
2023-02-11T21:48:09.105Z,27.67
2023-02-11T21:53:12.016Z,27.38
2023-02-11T21:58:14.035Z,27.10
2023-02-11T22:03:15.679Z,27.40
2023-02-11T22:08:19.850Z,28.60
2023-02-11T22:13:22.017Z,25.73
2023-02-11T22:18:23.720Z,26.33
2023-02-11T22:23:25.327Z,26.13
2023-02-11T22:28:27.113Z,26.65
2023-02-11T22:33:28.925Z,25.95
2023-02-11T22:38:31.314Z,25.75
2023-02-11T22:43:32.928Z,26.15
2023-02-11T22:48:36.031Z,25.08
2023-02-11T22:53:37.800Z,27.38
2023-02-11T22:58:39.570Z,26.85
2023-02-11T23:03:41.330Z,26.23
2023-02-11T23:08:43.394Z,24.30
2023-02-11T23:13:46.408Z,26.63
2023-02-11T23:18:49.325Z,27.02
2023-02-11T23:23:58.610Z,25.83
2023-02-11T23:29:00.265Z,26.38
2023-02-11T23:34:01.855Z,24.73
2023-02-11T23:39:04.452Z,24.92
2023-02-11T23:44:06.074Z,27.33
2023-02-11T23:49:07.700Z,27.42
2023-02-11T23:54:13.284Z,26.80
2023-02-11T23:59:14.974Z,25.60
